Time;durP1;ratioP1;P1;durP2;ratioP2;P2;SDS_P1;SDS_P2;PMS_P1;PMS_P2;Temp;Humidity;BMP_temperature;BMP_pressure;BME280_temperature;BME280_humidity;BME280_pressure;Samples;Min_cycle;Max_cycle;Signal;HPM_P1;HPM_P2
2020/12/04 00:00:23;;;;;;;12.07;9.87;;;7.40;55.40;;;;;;5035068;28;20460;-75
2020/12/04 00:02:50;;;;;;;14.67;12.43;;;7.40;55.30;;;;;;5034736;28;20462;-73
2020/12/04 00:05:16;;;;;;;13.23;10.70;;;7.40;55.50;;;;;;5034763;28;20457;-75
2020/12/04 00:07:43;;;;;;;16.80;11.80;;;7.30;55.70;;;;;;5033144;28;20457;-74
2020/12/04 00:10:10;;;;;;;15.10;11.43;;;7.30;55.90;;;;;;5028385;28;20942;-74
2020/12/04 00:12:40;;;;;;;14.10;10.90;;;7.30;55.80;;;;;;5032855;28;20458;-75
2020/12/04 00:15:07;;;;;;;13.23;11.07;;;7.30;56.10;;;;;;5032887;28;20510;-76
2020/12/04 00:17:33;;;;;;;11.87;10.20;;;7.40;56.30;;;;;;5034547;28;20447;-75
2020/12/04 00:20:00;;;;;;;20.60;11.10;;;7.40;56.30;;;;;;5034326;28;20445;-75
2020/12/04 00:22:26;;;;;;;14.13;10.97;;;7.40;56.30;;;;;;5034536;28;20912;-75
2020/12/04 00:24:53;;;;;;;13.50;11.50;;;7.40;56.20;;;;;;5034116;28;20457;-75
2020/12/04 00:27:20;;;;;;;15.70;12.80;;;7.40;56.00;;;;;;5034500;28;20461;-75
2020/12/04 00:29:47;;;;;;;12.73;9.37;;;7.40;56.20;;;;;;5034460;28;20834;-76
2020/12/04 00:32:13;;;;;;;14.50;11.50;;;7.40;55.90;;;;;;5034288;28;20454;-76
2020/12/04 00:34:40;;;;;;;14.53;12.20;;;7.40;55.90;;;;;;5034191;28;20489;-75
2020/12/04 00:37:07;;;;;;;15.03;11.80;;;7.40;56.00;;;;;;5033484;28;20479;-75
2020/12/04 00:39:34;;;;;;;14.20;11.07;;;7.40;56.00;;;;;;5034172;28;20962;-75
2020/12/04 00:42:01;;;;;;;13.80;11.77;;;7.30;55.70;;;;;;5031269;28;20471;-75
2020/12/04 00:44:28;;;;;;;13.40;11.00;;;7.30;55.60;;;;;;5034283;28;20445;-75
2020/12/04 00:46:55;;;;;;;13.27;10.97;;;7.30;55.60;;;;;;5033915;28;20511;-76
2020/12/04 00:49:21;;;;;;;13.40;12.00;;;7.30;55.70;;;;;;5033987;28;20462;-75
2020/12/04 00:51:52;;;;;;;12.40;10.33;;;7.30;55.80;;;;;;5032792;28;20500;-76
2020/12/04 00:54:18;;;;;;;15.30;11.37;;;7.30;55.90;;;;;;5033017;28;20456;-76
2020/12/04 00:56:45;;;;;;;15.03;11.23;;;7.30;56.10;;;;;;5033194;28;20948;-76
2020/12/04 00:59:11;;;;;;;14.00;11.73;;;7.30;56.20;;;;;;5033517;28;20450;-76
2020/12/04 01:01:39;;;;;;;12.97;9.87;;;7.30;56.20;;;;;;5033533;28;20480;-76
2020/12/04 01:04:05;;;;;;;12.80;11.43;;;7.20;56.20;;;;;;5033394;28;20453;-76
2020/12/04 01:06:32;;;;;;;10.83;9.70;;;7.20;56.30;;;;;;5033080;28;20457;-76
2020/12/04 01:08:59;;;;;;;17.50;12.00;;;7.20;56.20;;;;;;5031644;28;20474;-76
2020/12/04 01:11:27;;;;;;;14.43;11.83;;;7.20;56.00;;;;;;5033862;28;20460;-76
2020/12/04 01:13:53;;;;;;;13.23;11.70;;;7.10;56.10;;;;;;5031760;28;20489;-76
2020/12/04 01:16:20;;;;;;;13.83;11.00;;;7.10;56.00;;;;;;5033267;28;20500;-77
2020/12/04 01:18:47;;;;;;;13.90;10.83;;;7.10;56.50;;;;;;5027217;28;20460;-77
2020/12/04 01:21:14;;;;;;;12.90;11.47;;;7.10;56.10;;;;;;5033186;28;20800;-76
2020/12/04 01:23:41;;;;;;;12.60;10.77;;;7.20;56.00;;;;;;5024625;28;20490;-76
2020/12/04 01:26:08;;;;;;;14.43;11.43;;;7.10;55.70;;;;;;5027629;28;20452;-76
2020/12/04 01:28:34;;;;;;;14.43;11.67;;;7.00;55.90;;;;;;5030674;28;20479;-76
2020/12/04 01:31:01;;;;;;;11.60;10.20;;;7.10;56.10;;;;;;5033436;28;20817;-76
2020/12/04 01:33:28;;;;;;;19.10;11.13;;;7.10;56.20;;;;;;5029665;28;20985;-76
2020/12/04 01:35:55;;;;;;;15.73;11.90;;;7.10;56.30;;;;;;5032383;28;20544;-76
2020/12/04 01:38:22;;;;;;;13.70;11.03;;;7.10;56.10;;;;;;5031359;28;20479;-75
2020/12/04 01:40:48;;;;;;;14.67;11.57;;;7.10;55.90;;;;;;5033200;28;20496;-76
2020/12/04 01:43:15;;;;;;;11.60;10.40;;;7.20;56.00;;;;;;5030201;28;20972;-76
2020/12/04 01:45:41;;;;;;;14.93;11.40;;;7.20;56.10;;;;;;5017235;28;20461;-76
2020/12/04 01:48:08;;;;;;;18.73;11.83;;;7.20;56.00;;;;;;5031829;28;20529;-76
2020/12/04 01:50:34;;;;;;;19.00;12.53;;;7.20;55.70;;;;;;5013481;28;20450;-76
2020/12/04 01:53:02;;;;;;;14.90;10.27;;;7.20;55.70;;;;;;5013498;28;20451;-76
2020/12/04 01:55:30;;;;;;;17.53;12.90;;;7.20;55.70;;;;;;5018110;28;20500;-75
2020/12/04 01:57:56;;;;;;;14.00;11.73;;;7.20;56.00;;;;;;5032867;28;20514;-75
2020/12/04 02:00:23;;;;;;;13.30;11.70;;;7.20;55.90;;;;;;5029955;28;20455;-76
2020/12/04 02:02:50;;;;;;;16.10;12.30;;;7.20;55.80;;;;;;5015965;28;20454;-75
2020/12/04 02:05:17;;;;;;;16.07;11.57;;;7.20;55.60;;;;;;5016111;28;20462;-75
2020/12/04 02:07:51;;;;;;;13.80;11.10;;;7.20;55.70;;;;;;5017731;28;20449;-76
2020/12/04 02:10:24;;;;;;;12.93;10.67;;;7.20;55.90;;;;;;5018321;28;20450;-75
2020/12/04 02:12:51;;;;;;;15.27;11.90;;;7.20;55.80;;;;;;5013221;28;20458;-76
2020/12/04 02:15:18;;;;;;;17.73;10.83;;;7.20;55.80;;;;;;5026430;28;20537;-76
2020/12/04 02:17:46;;;;;;;16.23;11.43;;;7.20;56.50;;;;;;5019349;28;20541;-76
2020/12/04 02:20:13;;;;;;;13.50;11.07;;;7.20;55.90;;;;;;5023308;28;20481;-76
2020/12/04 02:22:40;;;;;;;18.17;12.33;;;7.10;55.70;;;;;;5013406;28;20487;-76
2020/12/04 02:25:09;;;;;;;13.67;11.03;;;7.20;56.10;;;;;;5022065;28;20458;-76
2020/12/04 02:27:43;;;;;;;15.80;11.93;;;7.20;55.90;;;;;;5029046;28;20877;-76
2020/12/04 02:30:12;;;;;;;14.90;11.93;;;7.20;56.00;;;;;;5025970;28;20463;-76
2020/12/04 02:32:38;;;;;;;16.60;12.30;;;7.20;56.20;;;;;;5012446;28;20814;-76
2020/12/04 02:35:05;;;;;;;15.70;12.57;;;7.20;56.20;;;;;;5015084;28;20489;-75
2020/12/04 02:37:31;;;;;;;19.83;12.17;;;7.20;56.10;;;;;;5030347;28;20469;-75
2020/12/04 02:39:58;;;;;;;13.70;11.10;;;7.20;56.10;;;;;;5031792;28;20451;-76
2020/12/04 02:42:25;;;;;;;13.03;11.67;;;7.30;56.20;;;;;;5030916;28;20816;-74
2020/12/04 02:44:51;;;;;;;15.40;12.40;;;7.30;56.50;;;;;;5032449;28;20445;-74
2020/12/04 02:47:18;;;;;;;16.97;12.43;;;7.30;56.10;;;;;;5031555;28;20461;-75
2020/12/04 02:49:44;;;;;;;11.53;9.80;;;7.30;56.00;;;;;;5031104;28;20465;-75
2020/12/04 02:52:11;;;;;;;13.20;11.60;;;7.20;56.00;;;;;;5032116;28;20958;-76
2020/12/04 02:54:37;;;;;;;14.43;12.53;;;7.20;56.00;;;;;;5029940;28;20465;-75
2020/12/04 02:57:05;;;;;;;14.83;11.63;;;7.20;55.80;;;;;;5031704;28;20957;-75
2020/12/04 02:59:31;;;;;;;12.90;11.50;;;7.20;55.90;;;;;;5031412;28;20815;-75
2020/12/04 03:01:58;;;;;;;14.87;11.80;;;7.20;56.00;;;;;;5032044;28;20451;-75
2020/12/04 03:04:24;;;;;;;18.60;13.47;;;7.20;55.80;;;;;;5032344;28;20933;-75
2020/12/04 03:06:51;;;;;;;18.27;13.53;;;7.20;55.90;;;;;;5030283;28;20460;-75
2020/12/04 03:09:17;;;;;;;16.20;12.27;;;7.20;55.90;;;;;;5032272;28;20448;-75
2020/12/04 03:11:44;;;;;;;16.30;12.17;;;7.20;56.00;;;;;;5032079;28;20493;-75
2020/12/04 03:14:11;;;;;;;13.47;11.30;;;7.20;55.90;;;;;;5032271;28;20495;-75
2020/12/04 03:16:38;;;;;;;15.10;12.10;;;7.20;55.80;;;;;;5031680;28;20915;-76
2020/12/04 03:19:04;;;;;;;14.90;12.67;;;7.20;55.70;;;;;;5032103;28;20456;-75
2020/12/04 03:21:31;;;;;;;16.57;12.13;;;7.10;55.80;;;;;;5028369;28;20977;-75
2020/12/04 03:23:57;;;;;;;14.10;12.40;;;7.20;56.00;;;;;;5031560;28;20457;-75
2020/12/04 03:26:24;;;;;;;14.17;11.43;;;7.20;56.20;;;;;;5032018;28;20456;-75
2020/12/04 03:28:50;;;;;;;15.73;12.07;;;7.20;56.20;;;;;;5030825;28;20472;-75
2020/12/04 03:31:18;;;;;;;12.53;11.23;;;7.20;56.00;;;;;;5031436;28;20512;-75
2020/12/04 03:33:44;;;;;;;13.23;10.27;;;7.20;56.10;;;;;;5031938;28;20942;-75
2020/12/04 03:36:11;;;;;;;19.53;12.90;;;7.20;56.30;;;;;;5031725;28;20481;-75
2020/12/04 03:38:37;;;;;;;15.07;11.03;;;7.20;56.00;;;;;;5031383;28;20522;-75
2020/12/04 03:41:04;;;;;;;12.40;11.10;;;7.30;55.80;;;;;;5031315;28;20455;-75
2020/12/04 03:43:30;;;;;;;15.17;11.33;;;7.30;55.70;;;;;;5031803;28;20470;-75
2020/12/04 03:45:57;;;;;;;12.47;11.00;;;7.30;55.60;;;;;;5033579;28;21965;-75
2020/12/04 03:48:24;;;;;;;17.43;12.77;;;7.40;55.80;;;;;;5033406;28;20579;-75
2020/12/04 03:50:51;;;;;;;16.40;10.70;;;7.40;55.90;;;;;;5035370;28;20465;-75
2020/12/04 03:53:17;;;;;;;18.03;13.93;;;7.40;55.90;;;;;;5034666;28;21013;-75
2020/12/04 03:55:43;;;;;;;17.97;12.33;;;7.40;55.90;;;;;;5035209;28;20948;-74
2020/12/04 03:58:10;;;;;;;22.70;12.27;;;7.40;56.00;;;;;;5034775;28;20490;-75
2020/12/04 04:00:39;;;;;;;14.10;10.73;;;7.40;56.20;;;;;;5035135;28;20958;-75
2020/12/04 04:03:05;;;;;;;16.70;12.63;;;7.40;56.40;;;;;;5034890;28;20454;-77
2020/12/04 04:05:33;;;;;;;20.07;11.47;;;7.40;56.30;;;;;;5034815;28;20453;-77
2020/12/04 04:07:59;;;;;;;14.90;11.73;;;7.40;56.20;;;;;;5034487;28;20466;-77
2020/12/04 04:10:26;;;;;;;15.03;12.13;;;7.40;56.30;;;;;;5032061;28;20467;-77
2020/12/04 04:12:52;;;;;;;15.20;11.90;;;7.40;56.50;;;;;;5033431;28;20475;-76
2020/12/04 04:15:20;;;;;;;14.77;12.40;;;7.40;56.60;;;;;;5031975;28;20488;-76
2020/12/04 04:17:47;;;;;;;16.33;11.87;;;7.30;56.70;;;;;;5034363;28;20460;-77
2020/12/04 04:20:13;;;;;;;16.23;12.40;;;7.30;56.70;;;;;;5034364;28;20454;-77
2020/12/04 04:22:41;;;;;;;13.93;11.43;;;7.30;56.80;;;;;;5033583;28;20458;-76
2020/12/04 04:25:07;;;;;;;14.60;11.30;;;7.30;56.80;;;;;;5034138;28;21077;-77
2020/12/04 04:27:34;;;;;;;14.60;11.80;;;7.30;56.80;;;;;;5034273;28;20454;-77
2020/12/04 04:30:00;;;;;;;12.90;11.50;;;7.30;56.90;;;;;;5034176;28;20463;-77
2020/12/04 04:32:27;;;;;;;18.00;12.60;;;7.40;57.00;;;;;;5030159;28;20493;-77
2020/12/04 04:34:53;;;;;;;15.03;11.77;;;7.40;57.10;;;;;;5033741;28;20544;-77
2020/12/04 04:37:20;;;;;;;16.90;11.53;;;7.40;57.30;;;;;;5030459;28;20481;-77
2020/12/04 04:39:47;;;;;;;17.10;12.73;;;7.40;57.10;;;;;;5033361;28;20449;-77
2020/12/04 04:42:14;;;;;;;20.47;11.40;;;7.40;57.20;;;;;;5031254;28;20967;-77
2020/12/04 04:44:40;;;;;;;15.00;11.50;;;7.40;57.10;;;;;;5030952;28;20521;-76
2020/12/04 04:47:13;;;;;;;15.00;11.07;;;7.50;57.10;;;;;;5030682;28;20442;-77
2020/12/04 04:49:45;;;;;;;13.90;11.00;;;7.50;57.10;;;;;;5034237;28;20456;-76
2020/12/04 04:52:12;;;;;;;10.73;9.47;;;7.50;57.30;;;;;;5027304;28;20443;-77
2020/12/04 04:54:44;;;;;;;16.13;10.37;;;7.50;57.30;;;;;;5033612;28;20495;-76
2020/12/04 04:57:12;;;;;;;12.97;10.47;;;7.50;57.50;;;;;;5031925;28;20507;-77
2020/12/04 04:59:38;;;;;;;15.53;11.13;;;7.50;57.50;;;;;;5033395;28;20461;-77
2020/12/04 05:02:05;;;;;;;13.57;10.60;;;7.50;57.60;;;;;;5033077;28;20454;-76
2020/12/04 05:04:52;;;;;;;13.50;10.90;;;7.50;57.40;;;;;;5028010;28;20466;-76
2020/12/04 05:07:26;;;;;;;14.47;10.27;;;7.50;57.50;;;;;;5032120;28;20450;-76
2020/12/04 05:09:53;;;;;;;16.10;10.90;;;7.60;57.40;;;;;;5014247;28;20478;-77
2020/12/04 05:12:21;;;;;;;13.83;12.00;;;7.60;57.30;;;;;;5029301;28;20486;-78
2020/12/04 05:14:47;;;;;;;14.93;10.47;;;7.60;57.30;;;;;;5033852;28;20873;-77
2020/12/04 05:17:14;;;;;;;15.10;11.10;;;7.60;57.50;;;;;;5031561;28;20476;-77
2020/12/04 05:19:42;;;;;;;11.33;10.13;;;7.60;57.60;;;;;;5033492;28;20472;-76
2020/12/04 05:22:10;;;;;;;15.37;11.53;;;7.50;57.60;;;;;;5032940;28;20510;-77
2020/12/04 05:24:37;;;;;;;14.43;11.60;;;7.50;57.70;;;;;;5032796;28;20449;-77
2020/12/04 05:27:23;;;;;;;13.13;10.00;;;7.60;57.50;;;;;;5032474;28;20465;-77
2020/12/04 05:29:50;;;;;;;14.00;9.83;;;7.60;57.60;;;;;;5031490;28;20445;-76
2020/12/04 05:32:17;;;;;;;11.67;9.50;;;7.70;57.60;;;;;;5030504;28;20473;-77
2020/12/04 05:34:44;;;;;;;16.23;10.57;;;7.70;57.50;;;;;;5016801;28;20866;-78
2020/12/04 05:37:11;;;;;;;13.03;10.20;;;7.70;57.40;;;;;;5027241;28;20494;-77
2020/12/04 05:39:42;;;;;;;14.20;10.00;;;7.70;57.40;;;;;;5028196;28;20459;-78
2020/12/04 05:42:08;;;;;;;12.43;9.90;;;7.70;57.40;;;;;;5032896;28;20556;-77
2020/12/04 05:44:51;;;;;;;13.70;11.23;;;7.70;57.50;;;;;;5027955;28;20459;-77
2020/12/04 05:47:19;;;;;;;14.00;9.00;;;7.70;57.50;;;;;;5027865;28;20799;-78
2020/12/04 05:49:46;;;;;;;13.13;10.10;;;7.70;57.50;;;;;;5022994;28;20451;-77
2020/12/04 05:52:14;;;;;;;12.93;10.07;;;7.70;57.60;;;;;;5031059;28;20485;-76
2020/12/04 05:54:43;;;;;;;12.23;10.10;;;7.70;57.70;;;;;;5014595;28;20465;-77
2020/12/04 05:57:11;;;;;;;13.67;9.77;;;7.70;57.80;;;;;;5023642;28;20499;-76
2020/12/04 05:59:44;;;;;;;11.80;9.93;;;7.70;57.80;;;;;;5025512;28;20487;-77
2020/12/04 06:02:14;;;;;;;15.30;9.93;;;7.70;57.70;;;;;;5022602;28;20555;-77
2020/12/04 06:04:41;;;;;;;11.10;8.87;;;7.70;57.70;;;;;;5013194;28;20488;-78
2020/12/04 06:07:11;;;;;;;10.90;9.00;;;7.70;57.80;;;;;;5012802;28;20958;-77
2020/12/04 06:09:40;;;;;;;13.93;9.13;;;7.80;57.80;;;;;;5023491;28;20557;-78
2020/12/04 06:12:11;;;;;;;10.33;8.47;;;7.80;58.20;;;;;;5031710;28;20499;-77
2020/12/04 06:14:39;;;;;;;10.93;8.60;;;7.80;57.40;;;;;;5020416;28;20451;-77
2020/12/04 06:17:12;;;;;;;13.60;9.17;;;7.80;57.40;;;;;;5024872;28;20496;-77
2020/12/04 06:19:40;;;;;;;11.53;10.37;;;7.80;57.00;;;;;;5017452;28;20475;-77
2020/12/04 06:22:08;;;;;;;9.47;8.30;;;7.80;56.70;;;;;;5021746;28;20474;-77
2020/12/04 06:25:01;;;;;;;8.90;7.70;;;7.70;56.60;;;;;;5013325;28;20470;-77
2020/12/04 06:27:51;;;;;;;12.00;8.73;;;7.80;56.10;;;;;;5016885;28;20964;-77
2020/12/04 06:30:19;;;;;;;11.23;8.37;;;7.80;56.20;;;;;;4999755;28;20455;-78
2020/12/04 06:32:48;;;;;;;10.53;7.80;;;7.80;55.90;;;;;;5019134;28;20455;-78
2020/12/04 06:35:16;;;;;;;12.20;9.43;;;7.70;55.30;;;;;;5019213;28;20477;-78
2020/12/04 06:37:45;;;;;;;15.30;10.07;;;7.70;55.30;;;;;;5013181;28;20488;-78
2020/12/04 06:40:25;;;;;;;10.90;8.70;;;7.70;55.40;;;;;;5025267;28;20471;-78
2020/12/04 06:42:52;;;;;;;12.57;10.50;;;7.80;55.60;;;;;;5017401;28;20463;-78
2020/12/04 06:45:20;;;;;;;12.07;9.80;;;7.70;54.70;;;;;;5022810;28;20462;-82
2020/12/04 06:48:14;;;;;;;14.93;10.87;;;7.60;54.80;;;;;;5014962;28;20522;-78
2020/12/04 06:50:45;;;;;;;10.73;9.50;;;7.70;55.20;;;;;;5013445;28;20456;-78
2020/12/04 06:53:12;;;;;;;25.03;10.90;;;7.70;55.30;;;;;;5028924;28;20496;-78
2020/12/04 06:55:40;;;;;;;11.00;9.77;;;7.80;55.40;;;;;;5012964;28;20998;-78
2020/12/04 06:58:07;;;;;;;13.70;9.50;;;7.80;55.30;;;;;;5013304;28;20970;-77
2020/12/04 07:00:35;;;;;;;11.53;8.70;;;7.80;54.90;;;;;;5021218;28;20451;-78
2020/12/04 07:03:03;;;;;;;16.60;10.50;;;7.80;54.80;;;;;;5031046;28;20950;-78
2020/12/04 07:05:32;;;;;;;13.00;9.90;;;7.80;54.60;;;;;;5017720;28;20459;-79
2020/12/04 07:08:03;;;;;;;13.67;10.10;;;7.80;54.60;;;;;;5015984;28;21058;-79
2020/12/04 07:10:31;;;;;;;11.57;10.07;;;7.80;54.80;;;;;;5026477;28;20456;-79
2020/12/04 07:12:59;;;;;;;13.93;11.20;;;7.70;54.80;;;;;;5015675;28;20484;-79
2020/12/04 07:15:26;;;;;;;14.13;10.50;;;7.80;55.20;;;;;;5011559;28;21051;-76
2020/12/04 07:17:53;;;;;;;12.63;10.20;;;7.80;55.10;;;;;;5012702;28;20464;-78
2020/12/04 07:20:21;;;;;;;13.63;12.27;;;7.70;54.80;;;;;;5025460;28;20461;-77
2020/12/04 07:22:47;;;;;;;22.37;11.67;;;7.60;54.80;;;;;;5033408;28;20454;-78
2020/12/04 07:25:14;;;;;;;14.53;11.87;;;7.60;55.80;;;;;;5025669;28;20497;-77
2020/12/04 07:27:41;;;;;;;19.93;11.80;;;7.60;55.20;;;;;;5031635;28;20939;-78
2020/12/04 07:30:14;;;;;;;14.90;11.70;;;7.70;55.00;;;;;;5028186;28;20825;-78
2020/12/04 07:32:49;;;;;;;16.47;12.33;;;7.70;55.20;;;;;;5017498;28;20546;-78
2020/12/04 07:35:17;;;;;;;16.13;10.93;;;7.70;55.00;;;;;;5030109;28;20454;-77
2020/12/04 07:37:44;;;;;;;14.47;10.73;;;7.80;54.90;;;;;;5032282;28;20482;-77
2020/12/04 07:40:10;;;;;;;16.03;11.10;;;7.80;54.70;;;;;;5028665;28;20454;-77
2020/12/04 07:42:37;;;;;;;14.00;11.17;;;7.80;54.90;;;;;;5031780;28;20464;-76
2020/12/04 07:45:04;;;;;;;11.30;9.90;;;7.80;55.10;;;;;;5030135;28;20451;-77
2020/12/04 07:47:30;;;;;;;13.40;10.17;;;7.80;55.00;;;;;;5018602;28;20459;-77
2020/12/04 07:50:00;;;;;;;16.13;12.17;;;7.80;54.60;;;;;;5028707;28;20455;-77
2020/12/04 07:52:31;;;;;;;14.67;9.93;;;7.80;54.70;;;;;;5028947;28;20519;-78
2020/12/04 07:54:59;;;;;;;15.47;11.03;;;7.80;54.80;;;;;;5029166;28;20838;-77
2020/12/04 07:57:32;;;;;;;16.77;10.47;;;7.90;54.80;;;;;;5028879;28;20845;-77
2020/12/04 07:59:59;;;;;;;16.87;11.27;;;7.90;54.70;;;;;;5034614;28;20455;-77
2020/12/04 08:02:27;;;;;;;14.53;11.30;;;7.90;54.70;;;;;;5029431;28;20523;-77
2020/12/04 08:04:54;;;;;;;16.30;10.93;;;8.00;54.90;;;;;;5034238;28;20472;-77
2020/12/04 08:07:21;;;;;;;16.17;11.97;;;8.00;54.40;;;;;;5034541;28;20485;-77
2020/12/04 08:09:49;;;;;;;15.30;11.80;;;7.90;54.50;;;;;;5026464;28;20454;-77
2020/12/04 08:12:21;;;;;;;13.83;11.53;;;7.90;54.80;;;;;;5026865;28;20471;-75
2020/12/04 08:14:50;;;;;;;17.70;11.53;;;7.90;54.60;;;;;;5034199;28;20525;-75
2020/12/04 08:17:21;;;;;;;12.17;9.83;;;7.80;54.40;;;;;;5028571;28;20556;-77
2020/12/04 08:19:48;;;;;;;22.73;12.03;;;7.80;54.70;;;;;;5034390;28;20454;-77
2020/12/04 08:22:14;;;;;;;15.30;11.83;;;7.80;54.60;;;;;;5023648;28;20483;-76
2020/12/04 08:24:50;;;;;;;15.83;11.10;;;7.80;54.80;;;;;;5014632;28;20461;-78
2020/12/04 08:27:23;;;;;;;19.30;11.40;;;7.90;54.90;;;;;;5018896;28;20975;-78
2020/12/04 08:30:04;;;;;;;18.00;12.60;;;7.90;54.50;;;;;;5022925;28;20455;-77
2020/12/04 08:32:31;;;;;;;15.80;12.90;;;8.00;54.70;;;;;;5031988;28;20451;-77
2020/12/04 08:35:08;;;;;;;14.57;10.27;;;8.10;54.50;;;;;;5033770;28;20462;-78
2020/12/04 08:37:35;;;;;;;17.77;11.57;;;8.10;54.40;;;;;;5031252;28;20494;-78
2020/12/04 08:40:01;;;;;;;19.30;12.00;;;8.10;54.70;;;;;;5033100;28;20460;-77
2020/12/04 08:42:33;;;;;;;18.20;13.80;;;8.10;54.60;;;;;;5031398;28;20474;-77
2020/12/04 08:45:03;;;;;;;13.77;11.83;;;8.30;54.70;;;;;;5034317;28;20853;-77
2020/12/04 08:47:33;;;;;;;19.03;11.03;;;8.40;54.30;;;;;;5029991;28;20456;-76
2020/12/04 08:50:14;;;;;;;20.27;12.17;;;8.40;54.20;;;;;;5021892;28;20455;-77
2020/12/04 08:52:46;;;;;;;17.70;11.43;;;8.40;54.30;;;;;;5015690;28;20489;-77
2020/12/04 08:55:15;;;;;;;19.70;13.60;;;8.50;54.30;;;;;;5029713;28;20452;-77
2020/12/04 08:57:43;;;;;;;23.63;12.03;;;8.50;55.00;;;;;;5021907;28;20483;-77
2020/12/04 09:00:12;;;;;;;19.87;11.97;;;8.50;54.30;;;;;;5030114;28;20480;-76
2020/12/04 09:02:39;;;;;;;25.40;13.90;;;8.60;54.20;;;;;;5033994;28;20450;-77
2020/12/04 09:05:09;;;;;;;16.30;12.00;;;8.60;54.30;;;;;;5033842;28;20448;-76
2020/12/04 09:07:35;;;;;;;15.10;11.80;;;8.60;54.40;;;;;;5032977;28;20461;-77
2020/12/04 09:10:02;;;;;;;16.07;11.27;;;8.70;54.10;;;;;;5032155;28;20456;-77
2020/12/04 09:12:30;;;;;;;16.03;12.57;;;8.60;53.60;;;;;;5033912;28;20825;-77
2020/12/04 09:14:57;;;;;;;13.67;11.00;;;8.60;54.00;;;;;;5033717;28;20505;-77
2020/12/04 09:17:24;;;;;;;21.53;11.60;;;8.60;53.80;;;;;;5033654;28;20496;-77
2020/12/04 09:19:50;;;;;;;19.93;12.33;;;8.60;53.60;;;;;;5032760;28;20443;-75
2020/12/04 09:22:17;;;;;;;16.20;12.00;;;8.60;53.40;;;;;;5033522;28;20449;-76
2020/12/04 09:24:44;;;;;;;21.23;12.87;;;8.60;53.50;;;;;;5033438;28;20811;-76
2020/12/04 09:27:11;;;;;;;16.60;12.37;;;8.60;53.40;;;;;;5033168;28;20444;-75
2020/12/04 09:29:37;;;;;;;16.07;13.07;;;8.50;53.50;;;;;;5033392;28;20450;-76
2020/12/04 09:32:13;;;;;;;28.33;12.13;;;8.50;53.60;;;;;;5033324;28;20451;-76
2020/12/04 09:34:41;;;;;;;18.37;12.80;;;8.40;53.80;;;;;;5033287;28;20457;-77
2020/12/04 09:37:13;;;;;;;13.40;11.27;;;8.40;54.20;;;;;;5031203;28;20491;-76
2020/12/04 09:39:43;;;;;;;22.30;12.70;;;8.40;54.20;;;;;;5033111;28;20455;-75
2020/12/04 09:42:10;;;;;;;16.60;11.70;;;8.50;54.00;;;;;;5033077;28;20456;-76
2020/12/04 09:44:36;;;;;;;13.67;11.07;;;8.60;53.90;;;;;;5033072;28;20444;-76
2020/12/04 09:47:03;;;;;;;22.33;13.80;;;8.60;53.80;;;;;;5033058;28;20514;-76
2020/12/04 09:49:30;;;;;;;19.90;12.80;;;8.70;53.70;;;;;;5032976;28;20460;-75
2020/12/04 09:51:58;;;;;;;13.90;12.43;;;8.80;53.60;;;;;;5031657;28;20468;-77
2020/12/04 09:54:26;;;;;;;12.83;11.20;;;8.80;53.10;;;;;;5032702;28;20543;-75
2020/12/04 09:56:54;;;;;;;12.40;9.57;;;8.80;53.20;;;;;;5032725;28;20491;-76
2020/12/04 09:59:21;;;;;;;13.10;10.83;;;8.80;53.30;;;;;;5032444;28;20476;-76
2020/12/04 10:01:52;;;;;;;25.80;12.43;;;8.70;53.30;;;;;;5031416;28;20455;-76
2020/12/04 10:04:19;;;;;;;14.73;10.63;;;8.70;53.40;;;;;;5031395;28;20472;-76
2020/12/04 10:06:47;;;;;;;13.07;10.73;;;8.80;53.50;;;;;;5032066;28;20451;-76
2020/12/04 10:09:14;;;;;;;15.40;11.70;;;8.80;53.50;;;;;;5032337;28;20953;-77
2020/12/04 10:11:41;;;;;;;17.17;12.23;;;8.90;53.50;;;;;;5032312;28;20455;-77
2020/12/04 10:14:08;;;;;;;23.30;11.67;;;8.90;53.40;;;;;;5031769;28;20444;-76
2020/12/04 10:16:35;;;;;;;14.53;11.13;;;9.00;53.30;;;;;;5031881;28;20824;-75
2020/12/04 10:19:02;;;;;;;14.47;10.50;;;9.00;53.00;;;;;;5031972;28;20446;-76
2020/12/04 10:21:33;;;;;;;13.73;12.27;;;9.00;53.00;;;;;;5031405;28;20475;-76
2020/12/04 10:24:01;;;;;;;22.33;12.37;;;9.00;53.00;;;;;;5032531;28;20464;-76
2020/12/04 10:26:28;;;;;;;22.50;11.13;;;9.00;53.00;;;;;;5032290;28;20464;-75
2020/12/04 10:28:54;;;;;;;15.67;11.17;;;9.00;52.80;;;;;;5030403;28;20499;-77
2020/12/04 10:31:21;;;;;;;16.43;11.07;;;9.00;52.90;;;;;;5032227;28;20475;-78
2020/12/04 10:33:48;;;;;;;13.60;11.30;;;8.90;53.00;;;;;;5032316;28;20442;-77
2020/12/04 10:36:14;;;;;;;13.90;11.27;;;8.90;53.20;;;;;;5031750;28;21027;-76
2020/12/04 10:38:42;;;;;;;16.80;11.53;;;8.80;53.20;;;;;;5032052;28;20478;-76
2020/12/04 10:41:09;;;;;;;18.50;10.40;;;8.80;53.30;;;;;;5032371;28;20451;-75
2020/12/04 10:43:36;;;;;;;15.80;11.53;;;8.90;53.20;;;;;;5031127;28;20472;-75
2020/12/04 10:46:03;;;;;;;12.50;10.20;;;9.00;53.10;;;;;;5032290;28;20461;-76
2020/12/04 10:48:29;;;;;;;21.87;11.93;;;9.00;52.80;;;;;;5032218;28;20446;-77
2020/12/04 10:50:56;;;;;;;37.73;14.40;;;9.10;52.90;;;;;;5031586;28;20980;-75
2020/12/04 10:53:26;;;;;;;16.87;11.60;;;9.10;52.70;;;;;;5033226;28;20499;-76
2020/12/04 10:55:52;;;;;;;19.43;11.63;;;9.10;52.80;;;;;;5034680;28;20482;-76
2020/12/04 10:58:20;;;;;;;13.23;11.80;;;9.10;53.00;;;;;;5036407;28;20454;-76
2020/12/04 11:00:49;;;;;;;19.37;12.10;;;9.10;52.80;;;;;;5035496;28;20980;-77
2020/12/04 11:03:23;;;;;;;18.00;12.10;;;9.10;52.90;;;;;;5036259;28;20459;-76
2020/12/04 11:05:49;;;;;;;23.43;11.40;;;9.10;52.90;;;;;;5035963;28;20447;-76
2020/12/04 11:08:15;;;;;;;12.07;9.70;;;9.20;52.90;;;;;;5035983;28;20506;-75
2020/12/04 11:10:43;;;;;;;19.70;11.80;;;9.20;52.60;;;;;;5035793;28;20445;-76
2020/12/04 11:13:10;;;;;;;15.23;10.17;;;9.20;52.50;;;;;;5035992;28;20452;-75
2020/12/04 11:15:38;;;;;;;11.97;10.70;;;9.20;52.80;;;;;;5035757;28;20456;-76
2020/12/04 11:18:05;;;;;;;14.10;10.67;;;9.10;52.70;;;;;;5035025;28;20957;-76
2020/12/04 11:20:31;;;;;;;22.13;12.17;;;9.00;53.10;;;;;;5034899;28;20456;-76
2020/12/04 11:22:58;;;;;;;13.93;12.43;;;9.00;53.20;;;;;;5035348;28;20456;-75
2020/12/04 11:25:24;;;;;;;13.13;11.07;;;9.10;53.10;;;;;;5035826;28;20456;-76
2020/12/04 11:27:52;;;;;;;14.90;11.10;;;9.10;52.80;;;;;;5035557;28;20509;-75
2020/12/04 11:30:21;;;;;;;12.53;10.13;;;9.00;53.30;;;;;;5035058;28;20452;-76
2020/12/04 11:32:50;;;;;;;11.53;10.33;;;9.00;52.80;;;;;;5035104;28;20446;-77
2020/12/04 11:35:18;;;;;;;13.77;10.87;;;9.10;53.00;;;;;;5035222;28;20941;-76
2020/12/04 11:37:48;;;;;;;13.40;9.60;;;9.00;53.20;;;;;;5035426;28;20868;-77
2020/12/04 11:40:17;;;;;;;12.60;11.30;;;9.00;53.30;;;;;;5035468;28;20485;-76
2020/12/04 11:42:45;;;;;;;12.77;10.60;;;9.00;53.10;;;;;;5035369;28;20502;-75
2020/12/04 11:45:14;;;;;;;11.13;9.80;;;9.10;52.90;;;;;;5034307;28;20453;-77
2020/12/04 11:47:41;;;;;;;11.40;9.67;;;9.10;52.90;;;;;;5033406;28;20445;-75
2020/12/04 11:50:10;;;;;;;11.57;10.00;;;9.10;52.80;;;;;;5035210;28;20452;-77
2020/12/04 11:52:37;;;;;;;14.37;10.50;;;9.20;52.90;;;;;;5035217;28;20457;-76
2020/12/04 11:55:04;;;;;;;13.10;10.93;;;9.30;52.90;;;;;;5035608;28;20846;-76
2020/12/04 11:57:30;;;;;;;13.07;10.50;;;9.30;52.90;;;;;;5035189;28;20974;-76
2020/12/04 11:59:57;;;;;;;16.10;10.83;;;9.40;52.80;;;;;;5035209;28;20511;-76
2020/12/04 12:02:23;;;;;;;14.00;9.80;;;9.40;52.60;;;;;;5034931;28;20451;-76
2020/12/04 12:04:50;;;;;;;13.67;11.33;;;9.50;52.60;;;;;;5033888;28;20450;-76
2020/12/04 12:07:17;;;;;;;20.43;12.57;;;9.50;52.60;;;;;;5034833;28;20477;-76
2020/12/04 12:09:47;;;;;;;15.10;11.10;;;9.50;52.60;;;;;;5034790;28;20933;-76
2020/12/04 12:12:14;;;;;;;16.60;12.50;;;9.50;52.40;;;;;;5034524;28;20485;-76
2020/12/04 12:14:40;;;;;;;12.57;11.27;;;9.40;52.50;;;;;;5033104;28;20459;-76
2020/12/04 12:17:07;;;;;;;16.70;11.40;;;9.30;52.70;;;;;;5034087;28;20913;-77
2020/12/04 12:19:34;;;;;;;17.37;12.43;;;9.30;52.70;;;;;;5033848;28;20456;-76
2020/12/04 12:22:00;;;;;;;14.47;12.13;;;9.30;52.60;;;;;;5033322;28;20460;-77
2020/12/04 12:24:28;;;;;;;14.17;11.77;;;9.40;52.60;;;;;;5033789;28;20464;-76
2020/12/04 12:26:54;;;;;;;14.97;11.70;;;9.40;52.60;;;;;;5033880;28;20457;-76
2020/12/04 12:29:21;;;;;;;18.13;12.40;;;9.40;52.50;;;;;;5034287;28;20460;-78
2020/12/04 12:31:47;;;;;;;11.20;9.30;;;9.40;52.20;;;;;;5034417;28;20451;-78
2020/12/04 12:34:14;;;;;;;15.47;11.20;;;9.50;52.20;;;;;;5033451;28;20464;-78
2020/12/04 12:36:40;;;;;;;14.27;11.40;;;9.50;52.30;;;;;;5033769;28;20497;-76
2020/12/04 12:39:07;;;;;;;14.30;12.23;;;9.50;52.50;;;;;;5034052;28;20453;-75
2020/12/04 12:41:34;;;;;;;18.47;11.10;;;9.50;52.40;;;;;;5032544;28;20442;-77